sensor_id;sensor_type;location;lat;lon;timestamp;temperature;humidity
53314;DHT22;39202;51.468;7.146;2022-08-01T00:02:48;31.30;39.60
53314;DHT22;39202;51.468;7.146;2022-08-01T00:07:49;31.30;39.60
53314;DHT22;39202;51.468;7.146;2022-08-01T00:12:51;31.30;39.60
53314;DHT22;39202;51.468;7.146;2022-08-01T00:17:54;31.30;39.60
53314;DHT22;39202;51.468;7.146;2022-08-01T00:22:56;31.30;39.60
53314;DHT22;39202;51.468;7.146;2022-08-01T00:27:57;31.30;39.60
53314;DHT22;39202;51.468;7.146;2022-08-01T00:33:00;31.30;39.70
53314;DHT22;39202;51.468;7.146;2022-08-01T00:38:02;31.30;39.60
53314;DHT22;39202;51.468;7.146;2022-08-01T00:43:04;31.30;39.70
53314;DHT22;39202;51.468;7.146;2022-08-01T00:48:07;31.30;39.70
53314;DHT22;39202;51.468;7.146;2022-08-01T00:53:09;31.30;39.70
53314;DHT22;39202;51.468;7.146;2022-08-01T00:58:11;31.30;39.70
53314;DHT22;39202;51.468;7.146;2022-08-01T01:03:14;31.30;39.70
53314;DHT22;39202;51.468;7.146;2022-08-01T01:08:19;31.30;39.70
53314;DHT22;39202;51.468;7.146;2022-08-01T01:13:30;31.20;39.60
53314;DHT22;39202;51.468;7.146;2022-08-01T01:18:37;31.30;39.70
53314;DHT22;39202;51.468;7.146;2022-08-01T01:23:54;31.20;39.70
53314;DHT22;39202;51.468;7.146;2022-08-01T01:29:08;31.20;39.70
53314;DHT22;39202;51.468;7.146;2022-08-01T01:34:13;31.20;39.70
53314;DHT22;39202;51.468;7.146;2022-08-01T01:39:16;31.20;39.70
53314;DHT22;39202;51.468;7.146;2022-08-01T01:44:19;31.20;39.70
53314;DHT22;39202;51.468;7.146;2022-08-01T01:49:24;31.20;39.70
53314;DHT22;39202;51.468;7.146;2022-08-01T01:54:29;31.20;39.70
53314;DHT22;39202;51.468;7.146;2022-08-01T01:59:35;31.20;39.70
53314;DHT22;39202;51.468;7.146;2022-08-01T02:04:40;31.20;39.70
53314;DHT22;39202;51.468;7.146;2022-08-01T02:09:43;31.20;39.70
53314;DHT22;39202;51.468;7.146;2022-08-01T02:14:48;31.20;39.70
53314;DHT22;39202;51.468;7.146;2022-08-01T02:19:50;31.20;39.70
53314;DHT22;39202;51.468;7.146;2022-08-01T02:24:57;31.20;39.70
53314;DHT22;39202;51.468;7.146;2022-08-01T02:30:05;31.20;39.80
53314;DHT22;39202;51.468;7.146;2022-08-01T02:35:11;31.20;39.80
53314;DHT22;39202;51.468;7.146;2022-08-01T02:40:16;31.20;39.80
53314;DHT22;39202;51.468;7.146;2022-08-01T02:45:24;31.20;39.80
53314;DHT22;39202;51.468;7.146;2022-08-01T02:50:26;31.20;39.80
53314;DHT22;39202;51.468;7.146;2022-08-01T02:55:32;31.10;39.70
53314;DHT22;39202;51.468;7.146;2022-08-01T03:00:37;31.10;39.80
53314;DHT22;39202;51.468;7.146;2022-08-01T03:05:41;31.10;39.70
53314;DHT22;39202;51.468;7.146;2022-08-01T03:10:45;31.10;39.80
53314;DHT22;39202;51.468;7.146;2022-08-01T03:15:49;31.10;39.80
53314;DHT22;39202;51.468;7.146;2022-08-01T03:20:52;31.10;39.80
53314;DHT22;39202;51.468;7.146;2022-08-01T03:25:56;31.10;39.80
53314;DHT22;39202;51.468;7.146;2022-08-01T03:31:02;31.10;39.80
53314;DHT22;39202;51.468;7.146;2022-08-01T03:36:05;31.10;39.80
53314;DHT22;39202;51.468;7.146;2022-08-01T03:41:11;31.10;39.80
53314;DHT22;39202;51.468;7.146;2022-08-01T03:46:18;31.10;39.80
53314;DHT22;39202;51.468;7.146;2022-08-01T03:51:22;31.10;39.80
53314;DHT22;39202;51.468;7.146;2022-08-01T03:56:25;31.10;39.80
53314;DHT22;39202;51.468;7.146;2022-08-01T04:01:31;31.10;39.80
53314;DHT22;39202;51.468;7.146;2022-08-01T04:06:37;31.10;39.80
53314;DHT22;39202;51.468;7.146;2022-08-01T04:11:39;31.10;39.90
53314;DHT22;39202;51.468;7.146;2022-08-01T04:16:42;31.10;39.80
53314;DHT22;39202;51.468;7.146;2022-08-01T04:21:44;31.10;39.80
53314;DHT22;39202;51.468;7.146;2022-08-01T04:26:47;31.10;39.80
53314;DHT22;39202;51.468;7.146;2022-08-01T04:31:53;31.10;39.90
53314;DHT22;39202;51.468;7.146;2022-08-01T04:36:56;31.10;39.90
53314;DHT22;39202;51.468;7.146;2022-08-01T04:41:58;31.00;39.80
53314;DHT22;39202;51.468;7.146;2022-08-01T04:47:05;31.00;39.80
53314;DHT22;39202;51.468;7.146;2022-08-01T04:52:08;31.00;39.90
53314;DHT22;39202;51.468;7.146;2022-08-01T04:57:10;31.10;39.90
53314;DHT22;39202;51.468;7.146;2022-08-01T05:02:15;31.00;39.80
53314;DHT22;39202;51.468;7.146;2022-08-01T05:07:17;31.00;39.80
53314;DHT22;39202;51.468;7.146;2022-08-01T05:12:18;31.00;39.80
53314;DHT22;39202;51.468;7.146;2022-08-01T05:17:22;31.00;39.80
53314;DHT22;39202;51.468;7.146;2022-08-01T05:22:24;31.00;39.80
53314;DHT22;39202;51.468;7.146;2022-08-01T05:27:26;31.00;39.80
53314;DHT22;39202;51.468;7.146;2022-08-01T05:32:29;31.00;39.80
53314;DHT22;39202;51.468;7.146;2022-08-01T05:37:32;31.00;39.90
53314;DHT22;39202;51.468;7.146;2022-08-01T05:42:33;31.00;39.90
53314;DHT22;39202;51.468;7.146;2022-08-01T05:47:37;31.00;39.90
53314;DHT22;39202;51.468;7.146;2022-08-01T05:52:38;31.00;39.90
53314;DHT22;39202;51.468;7.146;2022-08-01T05:57:40;31.00;39.90
53314;DHT22;39202;51.468;7.146;2022-08-01T06:02:43;31.00;39.90
53314;DHT22;39202;51.468;7.146;2022-08-01T06:07:45;31.00;39.90
53314;DHT22;39202;51.468;7.146;2022-08-01T06:12:46;31.00;39.90
53314;DHT22;39202;51.468;7.146;2022-08-01T06:17:49;31.00;39.90
53314;DHT22;39202;51.468;7.146;2022-08-01T06:22:51;31.00;40.40
53314;DHT22;39202;51.468;7.146;2022-08-01T06:27:53;31.00;40.80
53314;DHT22;39202;51.468;7.146;2022-08-01T06:32:56;31.10;41.20
53314;DHT22;39202;51.468;7.146;2022-08-01T06:37:59;31.10;41.60
53314;DHT22;39202;51.468;7.146;2022-08-01T06:43:01;31.10;41.70
53314;DHT22;39202;51.468;7.146;2022-08-01T06:48:04;31.10;41.80
53314;DHT22;39202;51.468;7.146;2022-08-01T06:53:06;31.10;42.00
53314;DHT22;39202;51.468;7.146;2022-08-01T06:58:07;31.20;42.00
53314;DHT22;39202;51.468;7.146;2022-08-01T07:03:10;31.20;42.20
53314;DHT22;39202;51.468;7.146;2022-08-01T07:08:12;31.20;42.40
53314;DHT22;39202;51.468;7.146;2022-08-01T07:13:14;31.20;42.40
53314;DHT22;39202;51.468;7.146;2022-08-01T07:18:22;31.20;42.40
53314;DHT22;39202;51.468;7.146;2022-08-01T07:23:24;31.20;42.60
53314;DHT22;39202;51.468;7.146;2022-08-01T07:28:25;31.20;42.60
53314;DHT22;39202;51.468;7.146;2022-08-01T07:33:28;31.30;42.70
53314;DHT22;39202;51.468;7.146;2022-08-01T07:38:30;31.30;42.70
53314;DHT22;39202;51.468;7.146;2022-08-01T07:43:32;31.30;42.80
53314;DHT22;39202;51.468;7.146;2022-08-01T07:48:37;31.30;42.80
53314;DHT22;39202;51.468;7.146;2022-08-01T07:53:39;31.30;42.90
53314;DHT22;39202;51.468;7.146;2022-08-01T07:58:40;31.30;42.80
53314;DHT22;39202;51.468;7.146;2022-08-01T08:03:44;31.30;42.80
53314;DHT22;39202;51.468;7.146;2022-08-01T08:08:45;31.30;42.80
53314;DHT22;39202;51.468;7.146;2022-08-01T08:13:47;31.30;42.70
53314;DHT22;39202;51.468;7.146;2022-08-01T08:18:50;31.30;42.80
53314;DHT22;39202;51.468;7.146;2022-08-01T08:23:52;31.30;42.80
53314;DHT22;39202;51.468;7.146;2022-08-01T08:29:11;31.40;42.80
53314;DHT22;39202;51.468;7.146;2022-08-01T08:34:14;31.40;42.80
53314;DHT22;39202;51.468;7.146;2022-08-01T08:39:16;31.40;42.60
53314;DHT22;39202;51.468;7.146;2022-08-01T08:44:18;31.40;42.50
53314;DHT22;39202;51.468;7.146;2022-08-01T08:49:25;31.40;42.50
53314;DHT22;39202;51.468;7.146;2022-08-01T08:54:29;31.40;42.70
53314;DHT22;39202;51.468;7.146;2022-08-01T08:59:31;31.40;42.60
53314;DHT22;39202;51.468;7.146;2022-08-01T09:04:35;31.30;42.60
53314;DHT22;39202;51.468;7.146;2022-08-01T09:09:37;31.40;42.80
53314;DHT22;39202;51.468;7.146;2022-08-01T09:14:44;31.30;42.70
53314;DHT22;39202;51.468;7.146;2022-08-01T09:19:52;31.30;42.80
53314;DHT22;39202;51.468;7.146;2022-08-01T09:24:59;31.30;42.80
53314;DHT22;39202;51.468;7.146;2022-08-01T09:30:10;31.30;43.00
53314;DHT22;39202;51.468;7.146;2022-08-01T09:35:29;31.30;42.90
53314;DHT22;39202;51.468;7.146;2022-08-01T09:40:44;31.30;43.00
53314;DHT22;39202;51.468;7.146;2022-08-01T09:45:47;31.40;43.00
53314;DHT22;39202;51.468;7.146;2022-08-01T09:50:52;31.50;42.80
53314;DHT22;39202;51.468;7.146;2022-08-01T09:55:53;31.50;42.60
53314;DHT22;39202;51.468;7.146;2022-08-01T10:00:59;31.40;42.50
53314;DHT22;39202;51.468;7.146;2022-08-01T10:06:19;31.40;42.50
53314;DHT22;39202;51.468;7.146;2022-08-01T10:11:21;31.40;42.50
53314;DHT22;39202;51.468;7.146;2022-08-01T10:16:24;31.40;42.50
53314;DHT22;39202;51.468;7.146;2022-08-01T10:21:27;31.40;42.50
53314;DHT22;39202;51.468;7.146;2022-08-01T10:26:33;31.40;42.50
53314;DHT22;39202;51.468;7.146;2022-08-01T10:31:36;31.40;42.50
53314;DHT22;39202;51.468;7.146;2022-08-01T10:36:40;31.30;42.50
53314;DHT22;39202;51.468;7.146;2022-08-01T10:41:42;31.30;42.70
53314;DHT22;39202;51.468;7.146;2022-08-01T10:46:48;31.20;42.70
53314;DHT22;39202;51.468;7.146;2022-08-01T10:51:52;31.20;43.00
53314;DHT22;39202;51.468;7.146;2022-08-01T10:56:54;31.20;42.90
53314;DHT22;39202;51.468;7.146;2022-08-01T11:02:02;31.20;42.90
53314;DHT22;39202;51.468;7.146;2022-08-01T11:07:07;31.20;43.00
53314;DHT22;39202;51.468;7.146;2022-08-01T11:12:11;31.10;43.00
53314;DHT22;39202;51.468;7.146;2022-08-01T11:17:32;31.20;43.10
53314;DHT22;39202;51.468;7.146;2022-08-01T11:28:27;31.20;43.10
53314;DHT22;39202;51.468;7.146;2022-08-01T11:33:52;31.30;43.00
53314;DHT22;39202;51.468;7.146;2022-08-01T11:39:13;31.30;43.00
53314;DHT22;39202;51.468;7.146;2022-08-01T11:44:20;31.30;43.00
53314;DHT22;39202;51.468;7.146;2022-08-01T11:49:25;31.20;42.90
53314;DHT22;39202;51.468;7.146;2022-08-01T11:54:27;31.20;43.00
53314;DHT22;39202;51.468;7.146;2022-08-01T11:59:38;31.20;42.90
53314;DHT22;39202;51.468;7.146;2022-08-01T12:04:53;31.30;43.00
53314;DHT22;39202;51.468;7.146;2022-08-01T12:09:59;31.30;43.00
53314;DHT22;39202;51.468;7.146;2022-08-01T12:15:05;31.30;43.00
53314;DHT22;39202;51.468;7.146;2022-08-01T12:20:09;31.30;42.90
53314;DHT22;39202;51.468;7.146;2022-08-01T12:25:12;31.30;42.90
53314;DHT22;39202;51.468;7.146;2022-08-01T12:30:17;31.30;42.90
53314;DHT22;39202;51.468;7.146;2022-08-01T12:35:21;31.30;43.00
53314;DHT22;39202;51.468;7.146;2022-08-01T12:40:25;31.30;42.90
53314;DHT22;39202;51.468;7.146;2022-08-01T12:45:32;31.30;42.80
53314;DHT22;39202;51.468;7.146;2022-08-01T12:50:37;31.30;42.70
53314;DHT22;39202;51.468;7.146;2022-08-01T12:55:44;31.40;42.70
53314;DHT22;39202;51.468;7.146;2022-08-01T13:00:50;31.40;42.70
53314;DHT22;39202;51.468;7.146;2022-08-01T13:06:10;31.40;42.70
53314;DHT22;39202;51.468;7.146;2022-08-01T13:11:14;31.40;42.70
53314;DHT22;39202;51.468;7.146;2022-08-01T13:16:20;31.30;42.70
53314;DHT22;39202;51.468;7.146;2022-08-01T13:21:23;31.30;42.70
53314;DHT22;39202;51.468;7.146;2022-08-01T13:26:38;31.30;42.70
53314;DHT22;39202;51.468;7.146;2022-08-01T13:31:41;31.30;42.80
53314;DHT22;39202;51.468;7.146;2022-08-01T13:36:43;31.30;42.80
53314;DHT22;39202;51.468;7.146;2022-08-01T13:41:46;31.30;42.70
53314;DHT22;39202;51.468;7.146;2022-08-01T13:46:49;31.30;42.80
53314;DHT22;39202;51.468;7.146;2022-08-01T13:51:50;31.30;42.80
53314;DHT22;39202;51.468;7.146;2022-08-01T13:56:53;31.30;42.80
53314;DHT22;39202;51.468;7.146;2022-08-01T14:01:56;31.30;42.80
53314;DHT22;39202;51.468;7.146;2022-08-01T14:06:57;31.30;42.80
53314;DHT22;39202;51.468;7.146;2022-08-01T14:11:59;31.20;42.70
53314;DHT22;39202;51.468;7.146;2022-08-01T14:17:03;31.20;42.70
53314;DHT22;39202;51.468;7.146;2022-08-01T14:22:04;31.20;42.70
53314;DHT22;39202;51.468;7.146;2022-08-01T14:27:06;31.20;42.60
53314;DHT22;39202;51.468;7.146;2022-08-01T14:32:09;31.20;42.70
53314;DHT22;39202;51.468;7.146;2022-08-01T14:37:11;31.20;42.80
53314;DHT22;39202;51.468;7.146;2022-08-01T14:42:13;31.20;42.70
53314;DHT22;39202;51.468;7.146;2022-08-01T14:47:16;31.20;42.80
53314;DHT22;39202;51.468;7.146;2022-08-01T14:52:18;31.20;42.80
53314;DHT22;39202;51.468;7.146;2022-08-01T14:57:19;31.20;42.80
53314;DHT22;39202;51.468;7.146;2022-08-01T15:02:23;31.20;43.10
53314;DHT22;39202;51.468;7.146;2022-08-01T15:07:24;31.20;43.00
53314;DHT22;39202;51.468;7.146;2022-08-01T15:12:26;31.20;43.00
53314;DHT22;39202;51.468;7.146;2022-08-01T15:17:30;31.20;43.00
53314;DHT22;39202;51.468;7.146;2022-08-01T15:22:33;31.20;43.00
53314;DHT22;39202;51.468;7.146;2022-08-01T15:27:34;31.20;42.90
53314;DHT22;39202;51.468;7.146;2022-08-01T15:32:37;31.10;42.80
53314;DHT22;39202;51.468;7.146;2022-08-01T15:37:39;31.10;42.90
53314;DHT22;39202;51.468;7.146;2022-08-01T15:42:42;31.10;42.90
53314;DHT22;39202;51.468;7.146;2022-08-01T15:47:45;31.20;43.00
53314;DHT22;39202;51.468;7.146;2022-08-01T15:52:47;31.10;42.90
53314;DHT22;39202;51.468;7.146;2022-08-01T15:57:49;31.10;42.90
53314;DHT22;39202;51.468;7.146;2022-08-01T16:02:52;31.10;42.90
53314;DHT22;39202;51.468;7.146;2022-08-01T16:07:54;31.10;43.00
53314;DHT22;39202;51.468;7.146;2022-08-01T16:12:56;31.10;43.00
53314;DHT22;39202;51.468;7.146;2022-08-01T16:17:59;31.10;43.00
53314;DHT22;39202;51.468;7.146;2022-08-01T16:23:01;31.10;43.00
53314;DHT22;39202;51.468;7.146;2022-08-01T16:28:03;31.10;42.90
53314;DHT22;39202;51.468;7.146;2022-08-01T16:33:06;31.00;42.80
53314;DHT22;39202;51.468;7.146;2022-08-01T16:38:09;31.00;42.80
53314;DHT22;39202;51.468;7.146;2022-08-01T16:43:11;31.00;42.90
53314;DHT22;39202;51.468;7.146;2022-08-01T16:48:15;31.00;42.80
53314;DHT22;39202;51.468;7.146;2022-08-01T16:53:19;31.00;42.80
53314;DHT22;39202;51.468;7.146;2022-08-01T16:58:21;31.00;43.50
53314;DHT22;39202;51.468;7.146;2022-08-01T17:03:24;31.00;42.90
53314;DHT22;39202;51.468;7.146;2022-08-01T17:08:26;31.00;42.80
53314;DHT22;39202;51.468;7.146;2022-08-01T17:13:28;31.00;42.80
53314;DHT22;39202;51.468;7.146;2022-08-01T17:18:31;31.10;42.80
53314;DHT22;39202;51.468;7.146;2022-08-01T17:23:33;31.10;42.80
53314;DHT22;39202;51.468;7.146;2022-08-01T17:28:35;31.10;42.90
53314;DHT22;39202;51.468;7.146;2022-08-01T17:33:38;31.10;42.70
53314;DHT22;39202;51.468;7.146;2022-08-01T17:38:40;31.10;42.70
53314;DHT22;39202;51.468;7.146;2022-08-01T17:43:42;31.10;42.70
53314;DHT22;39202;51.468;7.146;2022-08-01T17:48:45;31.10;42.70
53314;DHT22;39202;51.468;7.146;2022-08-01T17:53:47;31.10;42.60
53314;DHT22;39202;51.468;7.146;2022-08-01T17:58:49;31.10;42.60
53314;DHT22;39202;51.468;7.146;2022-08-01T18:03:52;31.10;42.50
53314;DHT22;39202;51.468;7.146;2022-08-01T18:08:54;31.10;42.50
53314;DHT22;39202;51.468;7.146;2022-08-01T18:13:56;31.10;42.50
53314;DHT22;39202;51.468;7.146;2022-08-01T18:18:59;31.10;42.50
53314;DHT22;39202;51.468;7.146;2022-08-01T18:24:00;31.10;42.50
53314;DHT22;39202;51.468;7.146;2022-08-01T18:29:02;31.10;42.50
53314;DHT22;39202;51.468;7.146;2022-08-01T18:34:07;31.10;42.50
53314;DHT22;39202;51.468;7.146;2022-08-01T18:39:09;31.10;42.50
53314;DHT22;39202;51.468;7.146;2022-08-01T18:44:11;31.10;42.50
53314;DHT22;39202;51.468;7.146;2022-08-01T18:49:16;31.10;42.40
53314;DHT22;39202;51.468;7.146;2022-08-01T18:54:19;31.10;42.40
53314;DHT22;39202;51.468;7.146;2022-08-01T18:59:22;31.10;42.40
53314;DHT22;39202;51.468;7.146;2022-08-01T19:04:25;31.10;42.40
53314;DHT22;39202;51.468;7.146;2022-08-01T19:09:27;31.10;42.40
53314;DHT22;39202;51.468;7.146;2022-08-01T19:14:29;31.10;42.40
53314;DHT22;39202;51.468;7.146;2022-08-01T19:19:32;31.10;42.50
53314;DHT22;39202;51.468;7.146;2022-08-01T19:24:35;31.10;42.50
53314;DHT22;39202;51.468;7.146;2022-08-01T19:29:38;31.10;42.50
53314;DHT22;39202;51.468;7.146;2022-08-01T19:34:47;31.10;42.50
53314;DHT22;39202;51.468;7.146;2022-08-01T19:39:50;31.10;42.40
53314;DHT22;39202;51.468;7.146;2022-08-01T19:44:53;31.00;42.30
53314;DHT22;39202;51.468;7.146;2022-08-01T19:49:56;31.00;42.30
53314;DHT22;39202;51.468;7.146;2022-08-01T19:54:58;31.00;42.30
53314;DHT22;39202;51.468;7.146;2022-08-01T20:00:02;31.00;42.30
53314;DHT22;39202;51.468;7.146;2022-08-01T20:05:06;31.00;42.30
53314;DHT22;39202;51.468;7.146;2022-08-01T20:10:09;31.00;42.30
53314;DHT22;39202;51.468;7.146;2022-08-01T20:15:11;31.00;42.30
53314;DHT22;39202;51.468;7.146;2022-08-01T20:20:15;31.00;42.30
53314;DHT22;39202;51.468;7.146;2022-08-01T20:25:18;31.00;42.30
53314;DHT22;39202;51.468;7.146;2022-08-01T20:30:21;31.00;42.30
53314;DHT22;39202;51.468;7.146;2022-08-01T20:35:27;31.00;42.30
53314;DHT22;39202;51.468;7.146;2022-08-01T20:40:29;31.00;42.20
53314;DHT22;39202;51.468;7.146;2022-08-01T20:45:31;31.00;42.20
53314;DHT22;39202;51.468;7.146;2022-08-01T20:50:36;31.00;42.30
53314;DHT22;39202;51.468;7.146;2022-08-01T20:55:59;31.00;42.20
53314;DHT22;39202;51.468;7.146;2022-08-01T21:01:03;30.90;42.20
53314;DHT22;39202;51.468;7.146;2022-08-01T21:06:10;30.90;42.20
53314;DHT22;39202;51.468;7.146;2022-08-01T21:11:15;30.90;42.20
53314;DHT22;39202;51.468;7.146;2022-08-01T21:16:24;30.90;42.20
53314;DHT22;39202;51.468;7.146;2022-08-01T21:21:28;30.90;42.20
53314;DHT22;39202;51.468;7.146;2022-08-01T21:26:31;30.90;42.10
53314;DHT22;39202;51.468;7.146;2022-08-01T21:31:35;30.90;42.20
53314;DHT22;39202;51.468;7.146;2022-08-01T21:36:41;30.90;42.20
53314;DHT22;39202;51.468;7.146;2022-08-01T21:41:44;30.90;42.10
53314;DHT22;39202;51.468;7.146;2022-08-01T21:46:46;30.90;42.10
53314;DHT22;39202;51.468;7.146;2022-08-01T21:51:53;30.90;42.10
53314;DHT22;39202;51.468;7.146;2022-08-01T21:57:01;30.80;42.10
53314;DHT22;39202;51.468;7.146;2022-08-01T22:02:10;30.80;42.10
53314;DHT22;39202;51.468;7.146;2022-08-01T22:07:15;30.80;42.00
53314;DHT22;39202;51.468;7.146;2022-08-01T22:12:18;30.80;42.10
53314;DHT22;39202;51.468;7.146;2022-08-01T22:17:22;30.80;42.10
53314;DHT22;39202;51.468;7.146;2022-08-01T22:22:26;30.80;42.10
53314;DHT22;39202;51.468;7.146;2022-08-01T22:27:29;30.80;42.00
53314;DHT22;39202;51.468;7.146;2022-08-01T22:32:34;30.80;42.00
53314;DHT22;39202;51.468;7.146;2022-08-01T22:37:37;30.80;42.00
53314;DHT22;39202;51.468;7.146;2022-08-01T22:42:42;30.80;42.00
53314;DHT22;39202;51.468;7.146;2022-08-01T22:47:52;30.80;42.00
53314;DHT22;39202;51.468;7.146;2022-08-01T22:53:08;30.80;42.00
53314;DHT22;39202;51.468;7.146;2022-08-01T22:58:14;30.80;42.00
53314;DHT22;39202;51.468;7.146;2022-08-01T23:03:22;30.80;42.00
53314;DHT22;39202;51.468;7.146;2022-08-01T23:08:26;30.70;41.90
53314;DHT22;39202;51.468;7.146;2022-08-01T23:13:29;30.70;41.90
53314;DHT22;39202;51.468;7.146;2022-08-01T23:18:31;30.70;42.00
53314;DHT22;39202;51.468;7.146;2022-08-01T23:23:35;30.70;41.90
53314;DHT22;39202;51.468;7.146;2022-08-01T23:28:57;30.50;41.00
53314;DHT22;39202;51.468;7.146;2022-08-01T23:34:35;30.70;42.30
53314;DHT22;39202;51.468;7.146;2022-08-01T23:40:02;30.80;41.90
53314;DHT22;39202;51.468;7.146;2022-08-01T23:45:20;30.60;41.90
53314;DHT22;39202;51.468;7.146;2022-08-01T23:50:52;28.90;40.80
